createdAt,value
2023-05-14T00:00:19.863Z,7.11
2023-05-14T00:02:46.404Z,6.99
2023-05-14T00:05:12.931Z,6.91
2023-05-14T00:07:39.379Z,6.94
2023-05-14T00:10:06.773Z,6.94
2023-05-14T00:12:33.280Z,6.89
2023-05-14T00:14:59.745Z,6.89
2023-05-14T00:17:26.603Z,6.80
2023-05-14T00:19:53.092Z,6.81
2023-05-14T00:22:19.795Z,6.55
2023-05-14T00:24:46.237Z,6.66
2023-05-14T00:27:12.725Z,6.67
2023-05-14T00:29:39.150Z,6.72
2023-05-14T00:32:06.161Z,6.68
2023-05-14T00:34:32.652Z,6.62
2023-05-14T00:36:59.076Z,6.54
2023-05-14T00:39:25.482Z,6.55
2023-05-14T00:41:52.050Z,6.50
2023-05-14T00:44:18.407Z,6.52
2023-05-14T00:46:44.929Z,6.35
2023-05-14T00:49:11.494Z,6.39
2023-05-14T00:51:38.500Z,6.36
2023-05-14T00:54:05.269Z,6.39
2023-05-14T00:56:31.882Z,6.30
2023-05-14T00:58:58.546Z,6.32
2023-05-14T01:01:25.405Z,6.24
2023-05-14T01:03:53.460Z,6.15
2023-05-14T01:06:28.831Z,6.18
2023-05-14T01:09:25.252Z,6.19
2023-05-14T01:12:19.358Z,6.13
2023-05-14T01:15:01.835Z,6.13
2023-05-14T01:17:31.988Z,6.07
2023-05-14T01:20:00.279Z,6.07
2023-05-14T01:22:27.021Z,6.07
2023-05-14T01:24:53.406Z,6.08
2023-05-14T01:27:44.217Z,6.09
2023-05-14T01:30:16.776Z,5.96
2023-05-14T01:32:48.082Z,5.87
2023-05-14T01:35:15.593Z,5.88
2023-05-14T01:37:43.986Z,5.84
2023-05-14T01:40:11.552Z,5.80
2023-05-14T01:42:38.881Z,5.53
2023-05-14T01:45:06.027Z,5.63
2023-05-14T01:47:32.588Z,5.68
2023-05-14T01:49:59.073Z,5.74
2023-05-14T01:52:25.576Z,5.81
2023-05-14T01:54:52.083Z,5.82
2023-05-14T01:57:18.541Z,5.73
2023-05-14T01:59:45.037Z,5.71
2023-05-14T02:02:11.404Z,5.64
2023-05-14T02:04:37.897Z,5.64
2023-05-14T02:07:04.636Z,5.59
2023-05-14T02:09:31.071Z,5.63
2023-05-14T02:11:57.561Z,5.57
2023-05-14T02:14:24.029Z,5.57
2023-05-14T02:16:51.358Z,5.53
2023-05-14T02:19:19.805Z,5.52
2023-05-14T02:21:46.230Z,5.48
2023-05-14T02:24:12.629Z,5.54
2023-05-14T02:26:39.130Z,5.44
2023-05-14T02:29:05.694Z,5.43
2023-05-14T02:31:32.155Z,5.48
2023-05-14T02:33:58.621Z,5.34
2023-05-14T02:36:25.025Z,5.24
2023-05-14T02:38:51.379Z,5.27
2023-05-14T02:41:17.891Z,5.31
2023-05-14T02:43:44.427Z,5.34
2023-05-14T02:46:10.835Z,5.39
2023-05-14T02:48:37.219Z,5.37
2023-05-14T02:51:03.868Z,5.27
2023-05-14T02:53:30.474Z,5.22
2023-05-14T02:55:56.942Z,5.18
2023-05-14T02:58:28.142Z,5.16
2023-05-14T03:00:55.067Z,5.17
2023-05-14T03:03:22.302Z,5.20
2023-05-14T03:05:49.300Z,5.23
2023-05-14T03:08:15.698Z,5.18
2023-05-14T03:10:42.195Z,5.12
2023-05-14T03:13:08.731Z,5.14
2023-05-14T03:15:35.128Z,5.03
2023-05-14T03:18:01.695Z,5.03
2023-05-14T03:20:28.198Z,5.09
2023-05-14T03:22:56.138Z,5.12
2023-05-14T03:25:22.833Z,5.03
2023-05-14T03:27:49.298Z,5.02
2023-05-14T03:30:15.745Z,4.97
2023-05-14T03:32:42.874Z,4.97
2023-05-14T03:35:09.457Z,4.92
2023-05-14T03:37:37.134Z,4.91
2023-05-14T03:40:04.041Z,4.80
2023-05-14T03:42:30.429Z,4.77
2023-05-14T03:44:56.909Z,4.77
2023-05-14T03:47:23.483Z,4.77
2023-05-14T03:49:51.028Z,4.77
2023-05-14T03:52:17.472Z,4.78
2023-05-14T03:54:44.024Z,4.78
2023-05-14T03:57:10.552Z,4.78
2023-05-14T03:59:36.941Z,4.83
2023-05-14T04:02:03.506Z,4.90
2023-05-14T04:04:29.983Z,4.89
2023-05-14T04:06:56.370Z,4.88
2023-05-14T04:09:23.355Z,4.91
2023-05-14T04:11:49.809Z,4.99
2023-05-14T04:14:16.316Z,5.03
2023-05-14T04:16:42.839Z,5.15
2023-05-14T04:19:09.336Z,5.17
2023-05-14T04:21:36.027Z,5.06
2023-05-14T04:24:02.586Z,5.13
2023-05-14T04:26:29.006Z,5.18
2023-05-14T04:28:55.689Z,5.12
2023-05-14T04:31:22.135Z,5.34
2023-05-14T04:33:48.716Z,5.55
2023-05-14T04:36:15.975Z,5.47
2023-05-14T04:38:42.431Z,5.47
2023-05-14T04:41:08.927Z,5.60
2023-05-14T04:43:35.396Z,5.66
2023-05-14T04:46:02.449Z,5.61
2023-05-14T04:48:29.013Z,5.34
2023-05-14T04:50:55.447Z,5.48
2023-05-14T04:53:21.886Z,5.45
2023-05-14T04:55:48.290Z,5.55
2023-05-14T04:58:14.676Z,5.58
2023-05-14T05:00:41.382Z,5.58
2023-05-14T05:03:08.788Z,5.62
2023-05-14T05:05:35.454Z,5.72
2023-05-14T05:08:02.113Z,5.86
2023-05-14T05:10:28.621Z,5.87
2023-05-14T05:12:55.035Z,6.05
2023-05-14T05:15:21.685Z,6.13
2023-05-14T05:17:48.272Z,6.23
2023-05-14T05:20:14.857Z,6.36
2023-05-14T05:22:41.630Z,6.64
2023-05-14T05:25:09.053Z,6.77
2023-05-14T05:27:35.555Z,6.67
2023-05-14T05:30:02.356Z,7.34
2023-05-14T05:32:28.833Z,8.15
2023-05-14T05:34:55.687Z,8.20
2023-05-14T05:37:22.253Z,8.15
2023-05-14T05:39:49.297Z,9.08
2023-05-14T05:42:15.723Z,8.85
2023-05-14T05:44:42.123Z,9.90
2023-05-14T05:47:08.587Z,9.10
2023-05-14T05:49:36.804Z,8.85
2023-05-14T05:52:04.250Z,8.53
2023-05-14T05:54:32.342Z,8.53
2023-05-14T05:56:59.345Z,8.76
2023-05-14T05:59:25.744Z,8.75
2023-05-14T06:01:52.267Z,8.86
2023-05-14T06:04:18.649Z,8.78
2023-05-14T06:06:45.122Z,8.91
2023-05-14T06:09:11.586Z,8.84
2023-05-14T06:11:38.082Z,8.97
2023-05-14T06:14:04.675Z,9.06
2023-05-14T06:16:31.364Z,9.10
2023-05-14T06:18:58.064Z,9.33
2023-05-14T06:21:24.589Z,9.53
2023-05-14T06:23:51.107Z,9.57
2023-05-14T06:26:17.613Z,9.85
2023-05-14T06:28:44.799Z,9.83
2023-05-14T06:31:11.267Z,10.07
2023-05-14T06:33:37.764Z,10.20
2023-05-14T06:36:05.831Z,10.41
2023-05-14T06:38:32.435Z,10.65
2023-05-14T06:40:58.882Z,10.92
2023-05-14T06:43:25.632Z,11.30
2023-05-14T06:45:52.264Z,12.27
2023-05-14T06:48:19.940Z,13.09
2023-05-14T06:50:49.886Z,12.84
2023-05-14T06:53:16.851Z,12.99
2023-05-14T06:55:43.361Z,13.08
2023-05-14T06:58:09.878Z,13.43
2023-05-14T07:00:36.358Z,14.27
2023-05-14T07:03:02.884Z,14.38
2023-05-14T07:05:29.392Z,14.93
2023-05-14T07:07:55.863Z,15.93
2023-05-14T07:10:22.917Z,16.29
2023-05-14T07:12:49.957Z,16.99
2023-05-14T07:15:16.529Z,16.92
2023-05-14T07:17:43.161Z,16.90
2023-05-14T07:20:10.157Z,16.92
2023-05-14T07:22:36.595Z,16.98
2023-05-14T07:25:03.288Z,16.69
2023-05-14T07:27:29.742Z,17.91
2023-05-14T07:29:56.208Z,18.13
2023-05-14T07:32:24.986Z,19.03
2023-05-14T07:34:51.754Z,19.22
2023-05-14T07:37:18.628Z,19.28
2023-05-14T07:39:45.137Z,19.30
2023-05-14T07:42:13.735Z,19.73
2023-05-14T07:44:46.059Z,19.84
2023-05-14T07:47:12.605Z,20.00
2023-05-14T07:49:42.052Z,19.95
2023-05-14T07:52:08.427Z,20.21
2023-05-14T07:54:34.824Z,19.96
2023-05-14T07:57:01.327Z,20.29
2023-05-14T07:59:27.827Z,19.68
2023-05-14T08:01:54.417Z,19.72
2023-05-14T08:04:23.328Z,19.74
2023-05-14T08:06:50.059Z,19.81
2023-05-14T08:09:16.488Z,20.55
2023-05-14T08:11:42.968Z,20.28
2023-05-14T08:14:09.499Z,19.96
2023-05-14T08:16:36.261Z,19.90
2023-05-14T08:19:02.832Z,19.64
2023-05-14T08:21:29.337Z,18.70
2023-05-14T08:23:55.818Z,18.93
2023-05-14T08:26:22.856Z,19.42
2023-05-14T08:28:53.075Z,19.21
2023-05-14T08:31:22.810Z,18.73
2023-05-14T08:33:49.359Z,18.64
2023-05-14T08:36:16.233Z,19.21
2023-05-14T08:38:42.810Z,18.95
2023-05-14T08:41:11.707Z,19.46
2023-05-14T08:43:47.814Z,19.54
2023-05-14T08:46:15.355Z,19.46
2023-05-14T08:48:46.074Z,19.32
2023-05-14T08:51:14.180Z,19.12
2023-05-14T08:53:40.821Z,18.50
2023-05-14T08:56:08.796Z,17.46
2023-05-14T08:58:35.491Z,17.59
2023-05-14T09:01:02.244Z,17.41
2023-05-14T09:03:29.326Z,18.13
2023-05-14T09:06:00.320Z,19.20
2023-05-14T09:08:29.262Z,18.47
2023-05-14T09:10:55.744Z,18.67
2023-05-14T09:13:22.266Z,18.12
2023-05-14T09:15:51.185Z,19.39
2023-05-14T09:18:20.479Z,19.32
2023-05-14T09:20:47.908Z,18.69
2023-05-14T09:23:14.466Z,18.67
2023-05-14T09:25:40.976Z,18.47
2023-05-14T09:28:09.354Z,18.06
2023-05-14T09:30:37.111Z,18.83
2023-05-14T09:33:04.286Z,18.73
2023-05-14T09:35:34.243Z,18.12
2023-05-14T09:38:00.760Z,17.43
2023-05-14T09:40:27.497Z,17.57
2023-05-14T09:42:54.254Z,17.54
2023-05-14T09:45:20.816Z,17.29
2023-05-14T09:47:47.426Z,17.27
2023-05-14T09:50:14.058Z,17.15
2023-05-14T09:52:40.548Z,17.68
2023-05-14T09:55:08.014Z,17.41
2023-05-14T09:57:35.475Z,17.43
2023-05-14T10:00:02.112Z,17.49
2023-05-14T10:02:41.194Z,17.29
2023-05-14T10:05:08.427Z,16.86
2023-05-14T10:07:44.477Z,16.89
2023-05-14T10:10:15.804Z,16.47
2023-05-14T10:12:46.511Z,16.77
2023-05-14T10:15:30.091Z,16.80
2023-05-14T10:18:00.786Z,16.54
2023-05-14T10:20:28.440Z,16.83
2023-05-14T10:22:56.723Z,16.61
2023-05-14T10:25:24.047Z,16.48
2023-05-14T10:27:50.735Z,16.67
2023-05-14T10:30:23.273Z,16.95
2023-05-14T10:32:50.053Z,16.96
2023-05-14T10:35:20.317Z,17.22
2023-05-14T10:37:47.075Z,17.29
2023-05-14T10:40:14.195Z,17.63
2023-05-14T10:42:43.294Z,17.66
2023-05-14T10:45:16.145Z,18.07
2023-05-14T10:47:45.846Z,19.00
2023-05-14T10:50:15.776Z,18.49
2023-05-14T10:52:43.860Z,18.61
2023-05-14T10:55:13.678Z,18.08
2023-05-14T10:57:43.734Z,18.16
2023-05-14T11:00:12.442Z,18.72
2023-05-14T11:02:40.637Z,18.35
2023-05-14T11:05:14.312Z,18.83
2023-05-14T11:07:42.057Z,18.72
2023-05-14T11:10:10.796Z,19.40
2023-05-14T11:12:42.616Z,19.37
2023-05-14T11:15:14.500Z,19.45
2023-05-14T11:17:43.989Z,19.38
2023-05-14T11:20:11.298Z,19.44
2023-05-14T11:22:39.391Z,18.62
2023-05-14T11:25:07.126Z,18.87
2023-05-14T11:27:40.735Z,18.89
2023-05-14T11:30:18.596Z,19.11
2023-05-14T11:32:47.356Z,19.65
2023-05-14T11:35:15.331Z,20.25
2023-05-14T11:37:42.602Z,20.67
2023-05-14T11:40:14.663Z,20.62
2023-05-14T11:42:41.785Z,20.77
2023-05-14T11:45:11.970Z,20.08
2023-05-14T11:47:38.841Z,19.29
2023-05-14T11:50:07.298Z,20.62
2023-05-14T11:52:42.120Z,20.95
2023-05-14T11:55:12.939Z,20.23
2023-05-14T11:57:41.061Z,19.13
2023-05-14T12:00:16.928Z,19.99
2023-05-14T12:02:43.740Z,18.93
2023-05-14T12:05:13.624Z,18.98
2023-05-14T12:07:40.430Z,18.68
2023-05-14T12:10:07.699Z,18.57
2023-05-14T12:12:37.437Z,18.57
2023-05-14T12:15:14.304Z,19.69
2023-05-14T12:17:41.239Z,20.37
2023-05-14T12:20:12.344Z,20.96
2023-05-14T12:22:39.344Z,20.84
2023-05-14T12:25:12.494Z,20.02
2023-05-14T12:27:39.123Z,21.35
2023-05-14T12:30:20.486Z,20.01
2023-05-14T12:32:51.452Z,20.12
2023-05-14T12:35:18.518Z,21.76
2023-05-14T12:37:44.887Z,22.69
2023-05-14T12:40:11.833Z,23.52
2023-05-14T12:42:38.286Z,23.22
2023-05-14T12:45:07.808Z,21.77
2023-05-14T12:47:34.879Z,20.77
2023-05-14T12:50:01.887Z,22.40
2023-05-14T12:52:37.698Z,24.84
2023-05-14T12:55:06.966Z,23.19
2023-05-14T12:57:35.498Z,23.55
2023-05-14T13:00:02.800Z,25.85
2023-05-14T13:02:29.207Z,24.20
2023-05-14T13:04:55.719Z,23.80
2023-05-14T13:07:22.180Z,23.62
2023-05-14T13:09:48.655Z,21.52
2023-05-14T13:12:15.572Z,21.42
2023-05-14T13:14:42.141Z,22.90
2023-05-14T13:17:08.636Z,25.44
2023-05-14T13:19:35.191Z,26.05
2023-05-14T13:22:01.960Z,24.80
2023-05-14T13:24:28.695Z,25.96
2023-05-14T13:26:55.213Z,24.88
2023-05-14T13:29:21.880Z,24.41
2023-05-14T13:31:48.385Z,25.41
2023-05-14T13:34:14.941Z,24.54
2023-05-14T13:36:43.471Z,23.66
2023-05-14T13:39:14.440Z,23.30
2023-05-14T13:41:41.883Z,22.69
2023-05-14T13:44:08.403Z,21.82
2023-05-14T13:46:34.976Z,21.95
2023-05-14T13:49:01.760Z,24.04
2023-05-14T13:51:28.284Z,25.50
2023-05-14T13:56:26.102Z,21.87
2023-05-14T13:58:52.835Z,22.72
2023-05-14T14:01:19.539Z,23.67
2023-05-14T14:03:45.961Z,23.55
2023-05-14T14:06:12.597Z,25.03
2023-05-14T14:08:39.024Z,24.97
2023-05-14T14:11:05.797Z,24.23
2023-05-14T14:13:32.294Z,23.73
2023-05-14T14:15:58.821Z,25.43
2023-05-14T14:18:25.637Z,26.96
2023-05-14T14:20:52.540Z,26.41
2023-05-14T14:23:19.528Z,26.35
2023-05-14T14:25:46.091Z,26.66
2023-05-14T14:28:12.605Z,26.21
2023-05-14T14:30:39.154Z,26.37
2023-05-14T14:33:05.754Z,24.12
2023-05-14T14:35:33.374Z,22.59
2023-05-14T14:38:02.832Z,22.22
2023-05-14T14:40:29.777Z,21.42
2023-05-14T14:42:56.414Z,20.58
2023-05-14T14:45:23.175Z,20.31
2023-05-14T14:47:50.177Z,19.74
2023-05-14T14:50:16.727Z,19.71
2023-05-14T14:52:47.870Z,19.73
2023-05-14T14:55:14.338Z,19.52
2023-05-14T14:57:40.816Z,19.17
2023-05-14T15:00:07.770Z,19.24
2023-05-14T15:02:34.869Z,18.89
2023-05-14T15:05:05.354Z,18.89
2023-05-14T15:07:32.997Z,18.89
2023-05-14T15:09:59.568Z,18.85
2023-05-14T15:12:26.046Z,18.96
2023-05-14T15:14:52.487Z,18.77
2023-05-14T15:17:18.925Z,18.78
2023-05-14T15:19:45.518Z,18.71
2023-05-14T15:22:11.964Z,18.83
2023-05-14T15:24:38.408Z,19.25
2023-05-14T15:27:05.026Z,19.74
2023-05-14T15:29:32.103Z,18.95
2023-05-14T15:31:58.554Z,18.46
2023-05-14T15:34:25.541Z,18.27
2023-05-14T15:36:52.025Z,17.53
2023-05-14T15:39:18.513Z,17.39
2023-05-14T15:41:45.384Z,17.17
2023-05-14T15:44:11.878Z,17.19
2023-05-14T15:46:38.414Z,17.20
2023-05-14T15:49:04.882Z,17.17
2023-05-14T15:51:34.637Z,17.09
2023-05-14T15:54:01.194Z,16.89
2023-05-14T15:56:27.726Z,16.67
2023-05-14T15:58:54.564Z,16.47
2023-05-14T16:01:20.983Z,16.41
2023-05-14T16:03:47.508Z,16.56
2023-05-14T16:06:14.023Z,16.80
2023-05-14T16:08:40.612Z,17.10
2023-05-14T16:11:07.674Z,17.26
2023-05-14T16:13:35.754Z,17.33
2023-05-14T16:16:02.265Z,17.55
2023-05-14T16:18:29.648Z,17.73
2023-05-14T16:20:56.373Z,17.93
2023-05-14T16:23:22.838Z,18.13
2023-05-14T16:25:49.311Z,18.19
2023-05-14T16:28:15.824Z,18.42
2023-05-14T16:30:42.350Z,18.32
2023-05-14T16:33:08.900Z,18.15
2023-05-14T16:35:35.333Z,18.31
2023-05-14T16:38:01.779Z,18.38
2023-05-14T16:40:28.343Z,18.22
2023-05-14T16:42:54.766Z,18.40
2023-05-14T16:45:21.281Z,18.34
2023-05-14T16:47:47.773Z,18.18
2023-05-14T16:50:14.274Z,18.08
2023-05-14T16:52:40.821Z,17.94
2023-05-14T16:55:07.668Z,17.94
2023-05-14T16:57:34.607Z,17.93
2023-05-14T17:00:01.238Z,18.16
2023-05-14T17:02:27.781Z,17.90
2023-05-14T17:04:55.247Z,17.69
2023-05-14T17:07:21.822Z,17.42
2023-05-14T17:09:48.637Z,17.50
2023-05-14T17:12:15.054Z,17.27
2023-05-14T17:14:41.514Z,17.24
2023-05-14T17:17:08.044Z,17.18
2023-05-14T17:19:34.593Z,16.99
2023-05-14T17:22:01.010Z,16.98
2023-05-14T17:24:27.461Z,17.03
2023-05-14T17:26:53.890Z,16.92
2023-05-14T17:29:20.679Z,16.92
2023-05-14T17:31:48.313Z,16.87
2023-05-14T17:34:14.828Z,16.95
2023-05-14T17:36:41.308Z,16.78
2023-05-14T17:39:07.811Z,16.51
2023-05-14T17:41:34.263Z,16.51
2023-05-14T17:44:00.727Z,16.54
2023-05-14T17:46:27.302Z,16.39
2023-05-14T17:48:53.821Z,16.23
2023-05-14T17:51:20.454Z,16.41
2023-05-14T17:53:47.086Z,16.24
2023-05-14T17:56:13.695Z,16.21
2023-05-14T17:58:40.247Z,16.24
2023-05-14T18:01:06.808Z,16.04
2023-05-14T18:03:33.727Z,15.79
2023-05-14T18:06:00.425Z,15.65
2023-05-14T18:08:26.859Z,15.71
2023-05-14T18:10:53.392Z,15.64
2023-05-14T18:13:19.930Z,15.58
2023-05-14T18:15:46.580Z,15.51
2023-05-14T18:18:13.387Z,15.44
2023-05-14T18:20:39.978Z,15.35
2023-05-14T18:23:06.482Z,15.27
2023-05-14T18:25:33.037Z,15.14
2023-05-14T18:27:59.738Z,15.20
2023-05-14T18:30:26.395Z,15.23
2023-05-14T18:32:53.055Z,15.22
2023-05-14T18:35:19.678Z,15.20
2023-05-14T18:37:46.153Z,15.12
2023-05-14T18:40:15.603Z,14.95
2023-05-14T18:42:43.443Z,14.95
2023-05-14T18:45:10.433Z,14.84
2023-05-14T18:47:37.124Z,14.71
2023-05-14T18:50:04.822Z,14.72
2023-05-14T18:52:32.289Z,14.35
2023-05-14T18:54:58.829Z,14.42
2023-05-14T18:57:29.406Z,14.39
2023-05-14T18:59:55.877Z,14.36
2023-05-14T19:02:22.458Z,14.35
2023-05-14T19:04:52.720Z,14.35
2023-05-14T19:07:23.220Z,14.45
2023-05-14T19:09:49.834Z,14.57
2023-05-14T19:12:16.378Z,14.47
2023-05-14T19:14:42.992Z,14.61
2023-05-14T19:17:09.757Z,14.60
2023-05-14T19:19:36.629Z,14.48
2023-05-14T19:22:03.284Z,14.58
2023-05-14T19:24:30.220Z,14.58
2023-05-14T19:26:56.998Z,14.44
2023-05-14T19:29:23.615Z,14.44
2023-05-14T19:31:50.235Z,14.45
2023-05-14T19:34:16.779Z,14.58
2023-05-14T19:36:43.355Z,14.52
2023-05-14T19:39:09.947Z,14.42
2023-05-14T19:41:36.342Z,14.31
2023-05-14T19:44:03.610Z,14.31
2023-05-14T19:46:30.267Z,14.19
2023-05-14T19:48:56.752Z,14.01
2023-05-14T19:51:23.260Z,13.87
2023-05-14T19:53:49.805Z,13.93
2023-05-14T19:56:16.808Z,14.02
2023-05-14T19:58:44.468Z,14.01
2023-05-14T20:01:12.205Z,13.87
2023-05-14T20:03:41.582Z,13.62
2023-05-14T20:06:08.140Z,13.61
2023-05-14T20:08:34.737Z,13.47
2023-05-14T20:11:01.518Z,13.51
2023-05-14T20:13:28.096Z,13.44
2023-05-14T20:15:55.260Z,13.47
2023-05-14T20:18:21.933Z,13.50
2023-05-14T20:20:51.868Z,13.52
2023-05-14T20:23:21.157Z,13.41
2023-05-14T20:25:47.846Z,13.14
2023-05-14T20:28:14.422Z,13.08
2023-05-14T20:30:41.322Z,12.90
2023-05-14T20:33:08.223Z,12.80
2023-05-14T20:35:36.626Z,12.69
2023-05-14T20:38:03.764Z,12.73
2023-05-14T20:40:30.826Z,12.74
2023-05-14T20:42:57.309Z,12.72
2023-05-14T20:45:27.022Z,12.66
2023-05-14T20:47:53.729Z,12.48
2023-05-14T20:50:21.595Z,12.58
2023-05-14T20:52:51.056Z,12.48
2023-05-14T20:55:21.716Z,12.31
2023-05-14T20:57:49.597Z,12.24
2023-05-14T21:00:16.478Z,12.04
2023-05-14T21:02:43.058Z,12.11
2023-05-14T21:05:09.706Z,12.04
2023-05-14T21:07:37.202Z,11.89
2023-05-14T21:10:04.247Z,11.76
2023-05-14T21:12:30.735Z,11.76
2023-05-14T21:14:57.180Z,11.92
2023-05-14T21:17:24.423Z,11.86
2023-05-14T21:19:50.908Z,11.60
2023-05-14T21:22:18.852Z,11.43
2023-05-14T21:24:45.324Z,11.41
2023-05-14T21:27:11.723Z,11.50
2023-05-14T21:29:39.372Z,11.57
2023-05-14T21:32:06.207Z,11.40
2023-05-14T21:34:32.747Z,11.31
2023-05-14T21:36:59.231Z,11.42
2023-05-14T21:39:25.634Z,11.53
2023-05-14T21:41:52.151Z,11.76
2023-05-14T21:44:18.762Z,11.74
2023-05-14T21:46:45.265Z,11.27
2023-05-14T21:49:11.685Z,10.81
2023-05-14T21:51:38.231Z,10.59
2023-05-14T21:54:05.016Z,10.45
2023-05-14T21:56:31.496Z,10.52
2023-05-14T21:58:57.914Z,10.36
2023-05-14T22:01:24.388Z,10.41
2023-05-14T22:03:50.880Z,10.48
2023-05-14T22:06:17.371Z,10.35
2023-05-14T22:08:43.766Z,10.30
2023-05-14T22:11:10.267Z,10.25
2023-05-14T22:13:42.771Z,10.31
2023-05-14T22:16:13.296Z,10.27
2023-05-14T22:18:40.387Z,10.08
2023-05-14T22:21:06.887Z,10.11
2023-05-14T22:23:33.339Z,9.95
2023-05-14T22:25:59.886Z,9.99
2023-05-14T22:28:26.493Z,9.98
2023-05-14T22:30:53.130Z,9.87
2023-05-14T22:33:19.503Z,10.04
2023-05-14T22:35:46.282Z,10.23
2023-05-14T22:38:13.783Z,9.96
2023-05-14T22:40:40.216Z,9.89
2023-05-14T22:43:06.674Z,9.86
2023-05-14T22:45:33.271Z,9.58
2023-05-14T22:47:59.774Z,9.48
2023-05-14T22:50:26.748Z,9.33
2023-05-14T22:52:53.119Z,9.13
2023-05-14T22:55:19.532Z,9.10
2023-05-14T22:57:46.021Z,8.95
2023-05-14T23:00:13.128Z,9.32
2023-05-14T23:02:39.590Z,9.31
2023-05-14T23:05:07.812Z,9.15
2023-05-14T23:07:35.042Z,9.30
2023-05-14T23:10:01.897Z,9.28
2023-05-14T23:12:28.500Z,9.47
2023-05-14T23:14:55.036Z,9.27
2023-05-14T23:17:21.572Z,9.22
2023-05-14T23:19:48.161Z,9.11
2023-05-14T23:22:14.587Z,8.94
2023-05-14T23:24:40.959Z,9.07
2023-05-14T23:27:07.663Z,8.83
2023-05-14T23:29:34.117Z,8.66
2023-05-14T23:32:00.634Z,8.77
2023-05-14T23:34:27.122Z,8.92
2023-05-14T23:36:53.717Z,8.66
2023-05-14T23:39:20.352Z,8.52
2023-05-14T23:41:46.799Z,8.49
2023-05-14T23:44:13.287Z,8.38
2023-05-14T23:46:39.720Z,8.55
2023-05-14T23:49:06.276Z,8.88
2023-05-14T23:51:32.731Z,8.57
2023-05-14T23:53:59.182Z,8.58
2023-05-14T23:56:26.238Z,8.35
2023-05-14T23:58:53.012Z,8.14
